Time;durP1;ratioP1;P1;durP2;ratioP2;P2;SDS_P1;SDS_P2;PMS_P1;PMS_P2;Temp;Humidity;BMP_temperature;BMP_pressure;BME280_temperature;BME280_humidity;BME280_pressure;Samples;Min_cycle;Max_cycle;Signal;HPM_P1;HPM_P2
2023/04/11 00:02:12;;;;;;;37.37;4.33;;;10.70;99.90;;;;;;7289380;19;20193;-78
2023/04/11 00:04:37;;;;;;;41.93;4.50;;;10.60;99.90;;;;;;7289674;19;20641;-79
2023/04/11 00:07:04;;;;;;;30.00;4.43;;;10.60;99.90;;;;;;7288638;19;20196;-77
2023/04/11 00:09:30;;;;;;;34.27;3.90;;;10.70;99.90;;;;;;7288472;19;20200;-78
2023/04/11 00:11:56;;;;;;;30.53;4.07;;;10.80;99.90;;;;;;7289746;19;20568;-78
2023/04/11 00:14:22;;;;;;;28.57;4.07;;;10.90;99.90;;;;;;7312090;19;20192;-78
2023/04/11 00:16:48;;;;;;;29.57;4.20;;;11.00;99.90;;;;;;7289175;19;20649;-78
2023/04/11 00:19:15;;;;;;;35.20;4.57;;;11.00;99.90;;;;;;7288981;19;20210;-78
2023/04/11 00:21:42;;;;;;;29.67;5.13;;;11.00;99.90;;;;;;7287080;19;20189;-78
2023/04/11 00:24:08;;;;;;;27.33;4.43;;;11.00;99.90;;;;;;7288543;19;20188;-78
2023/04/11 00:26:34;;;;;;;34.07;4.33;;;10.90;99.90;;;;;;7287844;19;20673;-78
2023/04/11 00:29:00;;;;;;;35.33;4.37;;;10.80;99.90;;;;;;7288240;19;20207;-78
2023/04/11 00:31:26;;;;;;;35.93;4.30;;;10.80;99.90;;;;;;7288373;19;20192;-78
2023/04/11 00:33:52;;;;;;;30.93;5.00;;;10.70;99.90;;;;;;7311167;19;20551;-78
2023/04/11 00:36:18;;;;;;;30.40;3.73;;;10.70;99.90;;;;;;7288454;19;20181;-78
2023/04/11 00:38:45;;;;;;;30.23;4.10;;;10.60;99.90;;;;;;7289100;19;20193;-78
2023/04/11 00:41:10;;;;;;;28.50;4.43;;;10.60;99.90;;;;;;7287137;19;20262;-78
2023/04/11 00:43:36;;;;;;;24.67;4.00;;;10.60;99.90;;;;;;7288886;19;20231;-78
2023/04/11 00:46:03;;;;;;;31.73;4.17;;;10.60;99.90;;;;;;7286297;19;20195;-78
2023/04/11 00:48:30;;;;;;;29.70;3.57;;;10.60;99.90;;;;;;7286128;19;20613;-80
2023/04/11 00:50:56;;;;;;;33.43;4.23;;;10.60;99.90;;;;;;7287925;19;20261;-78
2023/04/11 00:53:23;;;;;;;28.63;4.23;;;10.50;99.90;;;;;;7308458;19;20269;-78
2023/04/11 00:55:49;;;;;;;25.93;4.07;;;10.50;99.90;;;;;;7287882;19;20189;-78
2023/04/11 00:58:15;;;;;;;28.60;3.60;;;10.60;99.90;;;;;;7287894;19;20272;-78
2023/04/11 01:00:41;;;;;;;28.60;4.00;;;10.60;99.90;;;;;;7286662;19;20253;-78
2023/04/11 01:03:08;;;;;;;28.63;3.70;;;10.70;99.90;;;;;;7286217;19;20177;-78
2023/04/11 01:05:35;;;;;;;27.10;4.20;;;10.70;99.90;;;;;;7285888;19;20193;-79
2023/04/11 01:08:02;;;;;;;36.20;4.23;;;10.80;99.90;;;;;;7286070;19;20185;-76
2023/04/11 01:10:29;;;;;;;32.23;3.63;;;10.70;99.90;;;;;;7284981;19;20193;-78
2023/04/11 01:12:58;;;;;;;34.07;3.93;;;10.80;99.90;;;;;;7287022;19;20204;-77
2023/04/11 01:15:24;;;;;;;32.90;4.03;;;10.80;99.90;;;;;;7293702;19;20221;-77
2023/04/11 01:17:54;;;;;;;29.53;3.77;;;10.80;99.90;;;;;;7307975;19;20578;-78
2023/04/11 01:20:21;;;;;;;30.33;3.83;;;10.90;99.90;;;;;;7288418;19;20670;-78
2023/04/11 01:22:48;;;;;;;32.80;3.93;;;10.90;99.90;;;;;;7286987;19;20192;-78
2023/04/11 01:25:14;;;;;;;23.97;3.80;;;10.90;99.90;;;;;;7286163;19;20190;-78
2023/04/11 01:27:43;;;;;;;28.73;3.77;;;10.90;99.90;;;;;;7285409;19;20185;-78
2023/04/11 01:30:11;;;;;;;27.40;3.87;;;10.80;99.90;;;;;;7286841;19;20190;-78
2023/04/11 01:32:37;;;;;;;21.20;3.33;;;10.80;99.90;;;;;;7285118;19;20196;-78
2023/04/11 01:35:04;;;;;;;24.73;4.10;;;10.80;99.90;;;;;;7285903;19;20610;-78
2023/04/11 01:37:29;;;;;;;29.90;4.17;;;10.90;99.90;;;;;;7285197;19;20254;-77
2023/04/11 01:39:55;;;;;;;25.73;3.73;;;10.90;99.90;;;;;;7286926;19;20207;-78
2023/04/11 01:42:23;;;;;;;33.83;4.83;;;11.00;99.90;;;;;;7307232;19;20193;-78
2023/04/11 01:44:52;;;;;;;26.17;4.43;;;11.10;99.90;;;;;;7286904;19;20929;-78
2023/04/11 01:47:18;;;;;;;28.37;4.33;;;11.10;99.90;;;;;;7284131;19;20243;-78
2023/04/11 01:49:43;;;;;;;26.03;3.27;;;11.00;99.90;;;;;;7285640;19;20228;-78
2023/04/11 01:52:09;;;;;;;27.73;3.20;;;10.90;99.90;;;;;;7285488;19;20657;-78
2023/04/11 01:54:35;;;;;;;40.07;4.40;;;10.80;99.90;;;;;;7284914;19;20189;-78
2023/04/11 01:57:01;;;;;;;28.83;4.27;;;10.70;99.90;;;;;;7284732;19;20521;-78
2023/04/11 01:59:26;;;;;;;32.60;3.73;;;10.70;99.90;;;;;;7283398;19;20205;-78
2023/04/11 02:01:52;;;;;;;27.77;4.03;;;10.70;99.90;;;;;;7306180;19;20186;-78
2023/04/11 02:04:18;;;;;;;31.57;4.30;;;10.80;99.90;;;;;;7285603;19;20308;-78
2023/04/11 02:06:44;;;;;;;27.90;3.30;;;10.70;99.90;;;;;;7285178;19;20644;-79
2023/04/11 02:09:10;;;;;;;26.83;3.40;;;10.70;99.90;;;;;;7285630;19;20720;-79
2023/04/11 02:11:36;;;;;;;28.67;4.00;;;10.70;99.90;;;;;;7285357;19;20193;-78
2023/04/11 02:14:02;;;;;;;28.93;4.00;;;10.60;99.90;;;;;;7284331;19;20214;-76
2023/04/11 02:16:29;;;;;;;24.03;4.40;;;10.60;99.90;;;;;;7283961;19;20199;-76
2023/04/11 02:18:55;;;;;;;31.03;4.40;;;10.50;99.90;;;;;;7286279;19;20261;-76
2023/04/11 02:21:22;;;;;;;32.13;4.10;;;10.30;99.90;;;;;;7304476;19;20254;-76
2023/04/11 02:23:47;;;;;;;24.93;3.40;;;10.40;99.90;;;;;;7285297;19;20193;-76
2023/04/11 02:26:13;;;;;;;34.73;4.27;;;10.20;99.90;;;;;;7284105;19;20209;-76
2023/04/11 02:28:39;;;;;;;26.97;3.77;;;10.20;99.90;;;;;;7282645;19;20673;-76
2023/04/11 02:31:05;;;;;;;25.77;4.03;;;10.10;99.90;;;;;;7284636;19;20192;-76
2023/04/11 02:33:31;;;;;;;25.17;3.67;;;10.10;99.90;;;;;;7283414;19;20217;-77
2023/04/11 02:35:57;;;;;;;24.97;3.90;;;10.10;99.90;;;;;;7284611;19;20263;-78
2023/04/11 02:38:22;;;;;;;34.70;4.00;;;10.00;99.90;;;;;;7306243;19;20185;-76
2023/04/11 02:40:50;;;;;;;28.63;3.60;;;10.10;99.90;;;;;;7284318;19;20198;-76
2023/04/11 02:43:15;;;;;;;26.20;4.07;;;10.00;99.90;;;;;;7285274;19;20294;-76
2023/04/11 02:45:41;;;;;;;32.17;3.80;;;10.00;99.90;;;;;;7283499;19;20652;-76
2023/04/11 02:48:08;;;;;;;27.10;4.00;;;9.90;99.90;;;;;;7282674;19;20189;-77
2023/04/11 02:50:39;;;;;;;26.70;4.43;;;9.90;99.90;;;;;;7284006;19;20256;-77
2023/04/11 02:53:06;;;;;;;31.30;4.10;;;9.90;99.90;;;;;;7281442;19;20561;-76
2023/04/11 02:55:34;;;;;;;29.10;4.07;;;9.90;99.90;;;;;;7283025;19;20196;-77
2023/04/11 02:58:00;;;;;;;27.23;3.20;;;9.90;99.90;;;;;;7283739;19;20185;-77
2023/04/11 03:00:25;;;;;;;30.23;4.60;;;9.90;99.90;;;;;;7283150;19;20569;-77
2023/04/11 03:03:01;;;;;;;31.77;3.80;;;10.00;99.90;;;;;;7282919;19;20184;-77
2023/04/11 03:05:29;;;;;;;29.23;3.67;;;10.00;99.90;;;;;;7281793;19;20281;-77
2023/04/11 03:07:56;;;;;;;33.33;3.93;;;10.00;99.90;;;;;;7289853;19;20188;-77
2023/04/11 03:10:26;;;;;;;27.00;3.57;;;10.00;99.90;;;;;;7282639;19;20193;-77
2023/04/11 03:12:52;;;;;;;27.33;3.73;;;9.90;99.90;;;;;;7308198;19;20215;-77
2023/04/11 03:15:17;;;;;;;28.17;3.13;;;9.90;99.90;;;;;;7290994;19;20185;-77
2023/04/11 03:17:43;;;;;;;30.70;3.40;;;10.00;99.90;;;;;;7289644;19;20396;-77
2023/04/11 03:20:12;;;;;;;35.40;3.73;;;9.90;99.90;;;;;;7289657;19;20181;-77
2023/04/11 03:22:45;;;;;;;27.03;3.37;;;9.90;99.90;;;;;;7289894;19;20646;-77
2023/04/11 03:25:11;;;;;;;26.67;3.90;;;9.90;99.90;;;;;;7288271;19;20544;-77
2023/04/11 03:27:37;;;;;;;34.07;4.53;;;9.90;99.90;;;;;;7290052;19;20649;-77
2023/04/11 03:30:04;;;;;;;28.23;3.70;;;9.90;99.90;;;;;;7289667;19;20188;-77
2023/04/11 03:32:39;;;;;;;28.53;3.70;;;9.90;99.90;;;;;;7289130;19;20191;-77
2023/04/11 03:35:05;;;;;;;26.23;3.97;;;9.90;99.90;;;;;;7289827;19;20192;-77
2023/04/11 03:37:31;;;;;;;29.47;3.53;;;9.80;99.90;;;;;;7289546;19;20189;-77
2023/04/11 03:39:57;;;;;;;26.57;3.77;;;9.80;99.90;;;;;;7289704;19;20176;-77
2023/04/11 03:42:22;;;;;;;30.37;4.00;;;9.70;99.90;;;;;;7310690;19;20181;-77
2023/04/11 03:44:54;;;;;;;29.33;4.10;;;9.80;99.90;;;;;;7279390;19;20286;-76
2023/04/11 03:47:22;;;;;;;25.97;3.60;;;9.80;99.90;;;;;;7308941;19;20599;-78
2023/04/11 03:49:48;;;;;;;30.23;3.63;;;9.90;99.90;;;;;;7290594;19;20193;-77
2023/04/11 03:52:16;;;;;;;36.97;3.93;;;9.90;99.90;;;;;;7288046;19;21067;-77
2023/04/11 03:54:43;;;;;;;32.40;3.50;;;10.00;99.90;;;;;;7288994;19;20208;-77
2023/04/11 03:57:10;;;;;;;28.50;4.13;;;10.00;99.90;;;;;;7288703;19;20545;-78
2023/04/11 03:59:37;;;;;;;32.30;4.03;;;10.00;99.90;;;;;;7286662;19;20207;-76
2023/04/11 04:02:08;;;;;;;28.97;4.40;;;10.00;99.90;;;;;;7288369;19;20547;-77
2023/04/11 04:04:39;;;;;;;27.23;3.73;;;10.00;99.90;;;;;;7287165;19;20189;-77
2023/04/11 04:07:37;;;;;;;29.93;3.63;;;10.10;99.90;;;;;;7186164;19;2004789;-77
2023/04/11 04:10:13;;;;;;;33.30;4.00;;;10.00;99.90;;;;;;7288271;19;20299;-77
2023/04/11 04:12:42;;;;;;;24.20;3.27;;;10.10;99.90;;;;;;7288440;19;20638;-77
2023/04/11 04:15:13;;;;;;;34.57;4.20;;;10.00;99.90;;;;;;7288918;19;20197;-77
2023/04/11 04:17:41;;;;;;;27.87;4.10;;;10.10;99.90;;;;;;7287881;19;20193;-77
2023/04/11 04:20:11;;;;;;;26.07;3.80;;;10.20;99.90;;;;;;7287543;19;20260;-77
2023/04/11 04:22:39;;;;;;;33.50;4.30;;;10.20;99.90;;;;;;7288582;19;20197;-77
2023/04/11 04:25:05;;;;;;;32.53;3.87;;;10.20;99.90;;;;;;7288164;19;20205;-78
2023/04/11 04:27:33;;;;;;;33.73;3.20;;;10.30;99.90;;;;;;7285452;19;20645;-76
2023/04/11 04:29:59;;;;;;;29.67;3.90;;;10.30;99.90;;;;;;7288765;19;20202;-76
2023/04/11 04:32:31;;;;;;;33.03;3.63;;;10.40;99.90;;;;;;7286569;19;20660;-76
2023/04/11 04:35:04;;;;;;;31.03;4.30;;;10.30;99.90;;;;;;7288407;19;20195;-76
2023/04/11 04:37:38;;;;;;;32.37;4.10;;;10.20;99.90;;;;;;7288080;19;20184;-77
2023/04/11 04:40:14;;;;;;;29.17;3.37;;;10.20;99.90;;;;;;7287004;19;20203;-77
2023/04/11 04:42:57;;;;;;;23.23;3.10;;;10.20;99.90;;;;;;7287348;19;20185;-76
2023/04/11 04:45:28;;;;;;;26.03;3.80;;;10.20;99.90;;;;;;7183748;19;2004585;-76
2023/04/11 04:47:57;;;;;;;27.70;3.17;;;10.10;99.90;;;;;;7285970;19;20184;-77
2023/04/11 04:50:22;;;;;;;23.63;3.27;;;10.10;99.90;;;;;;7308153;19;20220;-77
2023/04/11 04:52:48;;;;;;;28.63;3.37;;;10.00;99.90;;;;;;7286190;19;20188;-77
2023/04/11 04:55:14;;;;;;;29.23;3.23;;;10.00;99.90;;;;;;7288052;19;20198;-77
2023/04/11 04:57:41;;;;;;;28.97;3.90;;;9.90;99.90;;;;;;7286531;19;20559;-77
2023/04/11 05:00:10;;;;;;;32.57;4.50;;;9.90;99.90;;;;;;7285485;19;20555;-77
2023/04/11 05:02:36;;;;;;;32.27;3.67;;;9.80;99.90;;;;;;7284215;19;20556;-77
2023/04/11 05:05:03;;;;;;;30.87;4.00;;;9.80;99.90;;;;;;7286050;19;20621;-76
2023/04/11 05:07:29;;;;;;;28.03;3.60;;;9.80;99.90;;;;;;7286536;19;20198;-77
2023/04/11 05:09:55;;;;;;;26.00;3.47;;;9.70;99.90;;;;;;7289159;19;20246;-76
2023/04/11 05:12:25;;;;;;;23.20;3.73;;;9.70;99.90;;;;;;7302314;19;20186;-76
2023/04/11 05:14:55;;;;;;;27.80;3.73;;;9.70;99.90;;;;;;7297212;19;20723;-76
2023/04/11 05:17:23;;;;;;;27.57;3.63;;;9.70;99.90;;;;;;7308128;19;20181;-77
2023/04/11 05:19:49;;;;;;;26.23;3.87;;;9.60;99.90;;;;;;7287231;19;20192;-77
2023/04/11 05:22:15;;;;;;;26.70;3.60;;;9.60;99.90;;;;;;7286956;19;20178;-77
2023/04/11 05:24:46;;;;;;;33.27;4.13;;;9.70;99.90;;;;;;7285334;19;20188;-77
2023/04/11 05:27:12;;;;;;;30.93;4.00;;;9.70;99.90;;;;;;7285624;19;20655;-77
2023/04/11 05:29:39;;;;;;;23.67;3.30;;;9.70;99.90;;;;;;7285702;19;20272;-78
2023/04/11 05:32:05;;;;;;;30.40;3.90;;;9.80;99.90;;;;;;7284378;19;20311;-77
2023/04/11 05:34:33;;;;;;;30.07;3.43;;;9.90;99.90;;;;;;7283687;19;20217;-77
2023/04/11 05:37:00;;;;;;;27.50;4.23;;;10.10;99.90;;;;;;7286417;19;20272;-77
2023/04/11 05:39:26;;;;;;;22.83;3.47;;;10.40;99.90;;;;;;7284840;19;20190;-76
2023/04/11 05:41:51;;;;;;;27.10;4.00;;;10.90;99.90;;;;;;7307330;19;20197;-78
2023/04/11 05:44:17;;;;;;;26.37;3.70;;;11.50;99.90;;;;;;7287006;19;20186;-77
2023/04/11 05:46:43;;;;;;;21.10;3.60;;;12.00;99.90;;;;;;7284819;19;20190;-77
2023/04/11 05:49:09;;;;;;;24.73;3.23;;;12.50;99.90;;;;;;7286546;19;20193;-77
2023/04/11 05:51:34;;;;;;;24.20;3.23;;;12.80;99.90;;;;;;7285434;19;20538;-77
2023/04/11 05:54:00;;;;;;;16.57;2.63;;;13.10;99.90;;;;;;7283087;19;20201;-77
2023/04/11 05:56:25;;;;;;;26.10;3.40;;;13.50;99.90;;;;;;7284875;19;20237;-76
2023/04/11 05:58:51;;;;;;;24.60;3.70;;;13.60;99.90;;;;;;7304563;19;20188;-77
2023/04/11 06:01:17;;;;;;;17.73;3.00;;;13.90;99.90;;;;;;7284406;19;20216;-76
2023/04/11 06:03:44;;;;;;;24.33;4.17;;;14.40;99.90;;;;;;7285703;19;20193;-77
2023/04/11 06:06:10;;;;;;;21.37;3.20;;;14.70;99.90;;;;;;7282750;19;20185;-76
2023/04/11 06:08:36;;;;;;;20.50;3.30;;;14.70;99.90;;;;;;7284617;19;20210;-76
2023/04/11 06:11:02;;;;;;;20.13;3.10;;;15.30;99.90;;;;;;7283615;19;20182;-77
2023/04/11 06:13:28;;;;;;;20.30;3.30;;;15.70;99.90;;;;;;7285058;19;20195;-76
2023/04/11 06:15:54;;;;;;;22.27;3.70;;;15.70;99.90;;;;;;7304716;19;20653;-76
2023/04/11 06:18:19;;;;;;;17.27;3.17;;;16.10;99.90;;;;;;7292193;19;20184;-76
2023/04/11 06:20:45;;;;;;;19.17;3.07;;;16.00;99.90;;;;;;7284908;19;20178;-77
2023/04/11 06:23:11;;;;;;;19.30;2.83;;;15.60;99.90;;;;;;7283093;19;20239;-76
2023/04/11 06:25:37;;;;;;;21.03;3.30;;;16.00;99.90;;;;;;7284784;19;20196;-76
2023/04/11 06:28:03;;;;;;;25.53;3.80;;;16.20;99.90;;;;;;7284061;19;20202;-77
2023/04/11 06:30:28;;;;;;;24.27;3.50;;;16.40;99.90;;;;;;7284772;19;20553;-76
2023/04/11 06:32:55;;;;;;;15.87;3.00;;;16.40;99.90;;;;;;7300032;19;20672;-75
2023/04/11 06:35:23;;;;;;;23.07;3.37;;;16.60;99.90;;;;;;7306100;19;20191;-76
2023/04/11 06:37:52;;;;;;;25.07;3.60;;;16.40;99.90;;;;;;7285458;19;20206;-77
2023/04/11 06:40:21;;;;;;;17.97;2.40;;;16.00;99.90;;;;;;7284617;19;20195;-77
2023/04/11 06:42:47;;;;;;;27.00;3.43;;;15.20;99.90;;;;;;7284252;19;20191;-77
2023/04/11 06:45:14;;;;;;;21.73;3.33;;;15.20;99.90;;;;;;7282693;19;20245;-76
2023/04/11 06:47:40;;;;;;;19.37;2.77;;;15.90;99.90;;;;;;7287414;19;20244;-76
2023/04/11 06:50:06;;;;;;;16.83;3.10;;;16.70;99.90;;;;;;7288973;19;20220;-76
2023/04/11 06:52:31;;;;;;;22.50;3.47;;;17.80;99.90;;;;;;7289787;19;20187;-76
2023/04/11 06:54:57;;;;;;;20.27;3.17;;;18.50;99.90;;;;;;7290154;19;20181;-76
2023/04/11 06:57:23;;;;;;;18.43;2.63;;;19.30;99.90;;;;;;7310501;19;20181;-77
2023/04/11 06:59:48;;;;;;;15.70;2.70;;;20.20;99.90;;;;;;7288693;19;20212;-77
2023/04/11 07:02:14;;;;;;;19.73;3.37;;;20.30;99.90;;;;;;7288879;19;20204;-77
2023/04/11 07:04:40;;;;;;;16.43;3.27;;;20.70;99.90;;;;;;7288993;19;20224;-77
2023/04/11 07:07:06;;;;;;;21.57;3.47;;;19.90;99.90;;;;;;7289251;19;20198;-77
2023/04/11 07:09:32;;;;;;;22.70;2.77;;;20.10;99.90;;;;;;7287320;19;20259;-77
2023/04/11 07:11:58;;;;;;;22.77;2.90;;;19.90;99.90;;;;;;7287229;19;20198;-77
2023/04/11 07:14:23;;;;;;;17.37;2.57;;;19.20;99.90;;;;;;7311735;19;20635;-78
2023/04/11 07:16:49;;;;;;;19.00;3.30;;;19.70;99.90;;;;;;7289526;19;20196;-78
2023/04/11 07:19:15;;;;;;;18.10;2.93;;;19.80;99.90;;;;;;7288934;19;20196;-77
2023/04/11 07:21:41;;;;;;;20.37;3.30;;;19.60;99.90;;;;;;7287989;19;20660;-77
2023/04/11 07:24:09;;;;;;;19.07;3.00;;;20.00;99.90;;;;;;7289658;19;20185;-77
2023/04/11 07:26:37;;;;;;;17.53;2.40;;;19.10;99.90;;;;;;7289284;19;20252;-77
2023/04/11 07:29:03;;;;;;;18.40;3.23;;;18.70;99.90;;;;;;7289756;19;20621;-77
2023/04/11 07:31:29;;;;;;;24.60;3.73;;;18.00;99.90;;;;;;7288906;19;20207;-77
2023/04/11 07:33:55;;;;;;;19.47;2.80;;;17.50;99.90;;;;;;7294700;19;20201;-76
2023/04/11 07:36:21;;;;;;;17.63;2.70;;;18.10;99.90;;;;;;7311061;19;20181;-77
2023/04/11 07:38:47;;;;;;;23.83;3.73;;;17.70;99.90;;;;;;7288106;19;20219;-77
2023/04/11 07:41:12;;;;;;;20.37;3.37;;;16.90;99.90;;;;;;7290176;19;20212;-77
2023/04/11 07:43:38;;;;;;;24.73;3.53;;;16.70;99.90;;;;;;7288516;19;20188;-77
2023/04/11 07:46:04;;;;;;;20.87;3.20;;;16.10;99.90;;;;;;7288705;19;20401;-76
2023/04/11 07:48:30;;;;;;;14.20;2.83;;;15.60;99.90;;;;;;7288923;19;20194;-77
2023/04/11 07:50:56;;;;;;;23.33;3.17;;;15.30;99.90;;;;;;7289373;19;20212;-76
2023/04/11 07:53:22;;;;;;;15.40;2.77;;;15.90;99.90;;;;;;7310712;19;20198;-77
2023/04/11 07:55:48;;;;;;;22.90;2.97;;;17.60;99.90;;;;;;7290180;19;20197;-77
2023/04/11 07:58:14;;;;;;;21.97;3.00;;;18.50;99.90;;;;;;7287414;19;25577;-77
2023/04/11 08:00:40;;;;;;;15.63;2.87;;;20.50;99.90;;;;;;7287978;19;20223;-77
2023/04/11 08:03:07;;;;;;;19.23;2.83;;;20.70;99.90;;;;;;7289142;19;20192;-77
2023/04/11 08:05:34;;;;;;;19.20;3.40;;;20.50;99.90;;;;;;7288965;19;20205;-77
2023/04/11 08:08:01;;;;;;;14.10;2.90;;;18.90;99.90;;;;;;7288296;19;20208;-77
2023/04/11 08:10:26;;;;;;;15.40;2.53;;;18.50;99.90;;;;;;7287151;19;20192;-77
2023/04/11 08:12:52;;;;;;;19.33;2.60;;;18.60;99.90;;;;;;7309993;19;20196;-77
2023/04/11 08:15:18;;;;;;;16.13;2.43;;;20.20;99.90;;;;;;7287947;19;20193;-78
2023/04/11 08:17:45;;;;;;;16.07;2.83;;;19.40;99.90;;;;;;7287973;19;20262;-78
2023/04/11 08:20:11;;;;;;;19.17;2.73;;;21.10;99.90;;;;;;7288416;19;20687;-77
2023/04/11 08:22:43;;;;;;;18.57;2.97;;;21.20;99.90;;;;;;7288952;19;20197;-77
2023/04/11 08:25:10;;;;;;;16.33;2.33;;;20.30;99.90;;;;;;7287761;19;20196;-77
2023/04/11 08:27:37;;;;;;;16.70;2.90;;;19.60;99.90;;;;;;7287479;19;20261;-77
2023/04/11 08:30:04;;;;;;;15.33;2.30;;;19.60;99.90;;;;;;7286997;19;20202;-77
2023/04/11 08:32:30;;;;;;;15.53;2.60;;;20.70;99.90;;;;;;7285871;19;20216;-77
2023/04/11 08:34:56;;;;;;;15.97;2.30;;;20.90;99.90;;;;;;7289881;19;20194;-77
2023/04/11 08:37:22;;;;;;;17.70;2.70;;;22.30;99.90;;;;;;7309575;19;20255;-78
2023/04/11 08:39:47;;;;;;;12.87;2.53;;;24.40;99.90;;;;;;7286678;19;20188;-77
2023/04/11 08:42:27;;;;;;;16.63;2.53;;;24.40;99.50;;;;;;7284836;19;20199;-77
2023/04/11 08:44:57;;;;;;;12.70;2.30;;;22.10;99.90;;;;;;7287581;19;20687;-78
2023/04/11 08:47:24;;;;;;;16.43;2.90;;;23.40;99.90;;;;;;7306831;19;20195;-77
2023/04/11 08:49:50;;;;;;;12.80;2.30;;;23.30;99.30;;;;;;7289285;19;20209;-77
2023/04/11 08:52:20;;;;;;;11.70;2.10;;;21.60;99.50;;;;;;7286924;19;20200;-77
2023/04/11 08:54:47;;;;;;;14.93;2.03;;;20.60;99.90;;;;;;7286483;19;20189;-77
2023/04/11 08:57:38;;;;;;;13.47;2.20;;;21.80;99.90;;;;;;7286225;19;20194;-77
2023/04/11 09:00:17;;;;;;;10.00;2.20;;;24.30;97.30;;;;;;7184199;19;2005046;-77
2023/04/11 09:03:00;;;;;;;13.77;1.90;;;24.10;92.90;;;;;;7287156;19;20209;-77
2023/04/11 09:05:29;;;;;;;9.93;2.10;;;23.50;94.60;;;;;;7271264;19;20201;-77
2023/04/11 09:07:57;;;;;;;11.27;1.83;;;22.30;95.40;;;;;;7297332;19;20638;-77
2023/04/11 09:10:24;;;;;;;12.40;2.20;;;22.60;94.30;;;;;;7306152;19;20338;-78
2023/04/11 09:12:50;;;;;;;12.43;2.07;;;22.50;94.00;;;;;;7287253;19;20209;-77
2023/04/11 09:15:21;;;;;;;11.13;1.73;;;22.80;92.30;;;;;;7288260;19;20178;-78
2023/04/11 09:17:48;;;;;;;10.93;2.37;;;23.90;90.40;;;;;;7287160;19;20230;-78
2023/04/11 09:20:19;;;;;;;10.13;1.97;;;22.20;91.50;;;;;;7287061;19;20190;-78
2023/04/11 09:22:47;;;;;;;9.07;1.77;;;20.10;93.70;;;;;;7287407;19;21235;-78
2023/04/11 09:25:13;;;;;;;9.40;2.10;;;19.40;96.40;;;;;;7286526;19;20607;-78
2023/04/11 09:27:38;;;;;;;10.13;1.53;;;19.70;96.70;;;;;;7286985;19;20210;-78
2023/04/11 09:30:05;;;;;;;12.87;2.13;;;21.40;96.60;;;;;;7286659;19;20211;-78
2023/04/11 09:32:33;;;;;;;13.97;2.03;;;21.00;94.60;;;;;;7285733;19;20189;-77
2023/04/11 09:35:09;;;;;;;10.20;1.80;;;19.40;96.40;;;;;;7286333;19;20196;-78
2023/04/11 09:37:46;;;;;;;11.37;2.10;;;20.60;97.10;;;;;;7286767;19;20184;-78
2023/04/11 09:40:13;;;;;;;8.97;1.80;;;21.80;95.10;;;;;;7285997;19;20219;-78
2023/04/11 09:42:43;;;;;;;9.70;2.27;;;23.10;92.90;;;;;;7285659;19;20212;-78
2023/04/11 09:45:20;;;;;;;12.80;2.10;;;23.90;91.20;;;;;;7285630;19;20209;-78
2023/04/11 09:47:47;;;;;;;10.53;2.33;;;22.30;92.40;;;;;;7285489;19;20189;-78
2023/04/11 09:50:14;;;;;;;11.50;1.97;;;20.70;92.40;;;;;;7286350;19;20182;-78
2023/04/11 09:52:41;;;;;;;9.47;1.67;;;19.30;94.60;;;;;;7285122;19;20192;-78
2023/04/11 09:55:10;;;;;;;14.00;2.23;;;19.50;97.00;;;;;;7286285;19;20198;-78
2023/04/11 09:57:44;;;;;;;11.80;1.87;;;22.00;93.80;;;;;;7285879;19;20201;-78
2023/04/11 10:00:17;;;;;;;10.23;1.93;;;23.40;90.90;;;;;;7285307;19;20197;-78
2023/04/11 10:02:45;;;;;;;11.83;2.20;;;24.40;88.60;;;;;;7286425;19;20268;-78
2023/04/11 10:05:12;;;;;;;9.93;1.70;;;24.30;89.30;;;;;;7284648;19;20205;-79
2023/04/11 10:08:01;;;;;;;10.83;1.97;;;24.80;84.30;;;;;;7285493;19;20550;-78
2023/04/11 10:10:27;;;;;;;10.90;2.10;;;23.80;85.40;;;;;;7263521;19;21002;-78
2023/04/11 10:12:53;;;;;;;10.17;1.80;;;22.10;85.60;;;;;;7305558;19;20186;-78
2023/04/11 10:15:18;;;;;;;11.27;2.17;;;23.10;88.80;;;;;;7285388;19;20612;-79
2023/04/11 10:18:06;;;;;;;11.80;2.23;;;24.50;83.80;;;;;;7283366;19;20255;-79
2023/04/11 10:20:37;;;;;;;15.43;2.33;;;24.70;79.90;;;;;;7180371;19;2004578;-78
2023/04/11 10:23:03;;;;;;;13.50;2.00;;;23.70;81.80;;;;;;7287737;19;20373;-78
2023/04/11 10:25:29;;;;;;;13.90;2.00;;;22.50;83.70;;;;;;7287860;19;20184;-78
2023/04/11 10:28:05;;;;;;;14.33;2.10;;;21.50;84.60;;;;;;7303319;19;20189;-77
2023/04/11 10:30:40;;;;;;;15.27;2.40;;;20.30;90.70;;;;;;7284795;19;20185;-78
2023/04/11 10:33:16;;;;;;;13.37;2.40;;;20.30;92.60;;;;;;7282657;19;20563;-79
2023/04/11 10:36:04;;;;;;;11.90;2.00;;;22.40;92.30;;;;;;7285681;19;20187;-80
2023/04/11 10:38:36;;;;;;;9.63;1.80;;;25.20;87.90;;;;;;7182256;19;2004855;-79
2023/04/11 10:41:32;;;;;;;13.20;2.20;;;25.70;78.60;;;;;;7284676;19;20636;-79
2023/04/11 10:44:19;;;;;;;12.43;2.50;;;26.30;75.30;;;;;;7262686;19;20287;-79
2023/04/11 10:46:55;;;;;;;11.50;1.80;;;24.40;73.20;;;;;;7284416;19;20288;-79
2023/04/11 10:49:37;;;;;;;9.97;1.87;;;24.60;77.40;;;;;;7285691;19;20292;-79
2023/04/11 10:52:20;;;;;;;12.27;2.00;;;22.90;78.00;;;;;;7182428;19;2004986;-79
2023/04/11 10:54:48;;;;;;;11.47;1.93;;;21.70;81.20;;;;;;7283755;19;20763;-79
2023/04/11 10:57:13;;;;;;;10.20;1.70;;;21.50;84.80;;;;;;7282818;19;20200;-79
2023/04/11 10:59:42;;;;;;;13.60;2.07;;;21.40;84.60;;;;;;7283555;19;20203;-78
2023/04/11 11:02:08;;;;;;;17.63;2.20;;;19.60;84.20;;;;;;7282990;19;20197;-80
2023/04/11 11:04:38;;;;;;;11.30;1.90;;;18.60;88.60;;;;;;7283194;19;20203;-78
2023/04/11 11:07:07;;;;;;;13.97;2.43;;;18.00;90.10;;;;;;7284890;19;20312;-78
2023/04/11 11:09:33;;;;;;;9.67;2.10;;;17.80;91.40;;;;;;7284189;19;20658;-78
2023/04/11 11:12:11;;;;;;;12.83;1.93;;;17.80;92.10;;;;;;7283156;19;20193;-78
2023/04/11 11:14:42;;;;;;;10.73;1.70;;;18.10;93.30;;;;;;7284333;19;20188;-78
2023/04/11 11:17:10;;;;;;;14.63;2.00;;;19.20;92.10;;;;;;7283673;19;20197;-78
2023/04/11 11:19:35;;;;;;;9.20;1.67;;;18.40;91.80;;;;;;7283600;19;20185;-78
2023/04/11 11:22:05;;;;;;;12.33;1.93;;;18.50;92.80;;;;;;7282592;19;20196;-78
2023/04/11 11:24:31;;;;;;;13.03;2.40;;;18.40;93.10;;;;;;7284251;19;20216;-78
2023/04/11 11:26:57;;;;;;;10.83;1.77;;;17.70;93.20;;;;;;7283796;19;20188;-78
2023/04/11 11:29:32;;;;;;;14.17;1.90;;;17.50;94.20;;;;;;7305043;19;20223;-78
2023/04/11 11:31:59;;;;;;;15.17;2.30;;;17.50;95.40;;;;;;7263087;19;20204;-78
2023/04/11 11:34:30;;;;;;;14.30;2.20;;;18.20;94.30;;;;;;7310849;19;20256;-79
2023/04/11 11:36:56;;;;;;;12.40;2.10;;;18.50;94.70;;;;;;7286338;19;20698;-77
2023/04/11 11:39:22;;;;;;;11.33;1.80;;;18.50;93.50;;;;;;7311017;19;20219;-78
2023/04/11 11:41:48;;;;;;;21.87;3.40;;;18.40;94.30;;;;;;7290330;19;21036;-79
2023/04/11 11:44:25;;;;;;;14.37;1.83;;;19.30;95.20;;;;;;7288594;19;20197;-78
2023/04/11 11:47:05;;;;;;;13.27;1.90;;;20.30;92.20;;;;;;7289450;19;20248;-79
2023/04/11 11:49:52;;;;;;;13.80;2.40;;;20.70;90.30;;;;;;7188737;19;2005039;-78
2023/04/11 11:52:33;;;;;;;12.70;1.93;;;20.80;91.00;;;;;;7288087;19;20197;-78
2023/04/11 11:55:04;;;;;;;14.73;2.03;;;20.10;90.00;;;;;;7268567;19;20950;-78
2023/04/11 11:57:31;;;;;;;14.03;2.00;;;19.90;92.20;;;;;;7289647;19;20276;-78
2023/04/11 11:59:59;;;;;;;10.60;1.83;;;20.60;91.40;;;;;;7291655;19;20205;-78
2023/04/11 12:02:26;;;;;;;11.97;2.10;;;21.40;91.40;;;;;;7310304;19;20194;-78
2023/04/11 12:05:03;;;;;;;11.80;1.90;;;22.60;86.20;;;;;;7289203;19;20202;-79
2023/04/11 12:07:33;;;;;;;17.07;2.57;;;22.90;87.40;;;;;;7267704;19;20192;-79
2023/04/11 12:10:07;;;;;;;14.00;2.30;;;24.10;84.40;;;;;;7287415;19;20195;-79
2023/04/11 12:12:41;;;;;;;12.40;2.70;;;24.50;80.80;;;;;;7288839;19;20199;-79
2023/04/11 12:15:17;;;;;;;10.30;2.20;;;23.80;80.60;;;;;;7287736;19;20547;-79
2023/04/11 12:17:48;;;;;;;9.57;2.33;;;22.40;80.70;;;;;;7286510;19;20188;-79
2023/04/11 12:20:15;;;;;;;14.90;2.40;;;20.60;83.50;;;;;;7287872;19;20544;-79
2023/04/11 12:22:41;;;;;;;9.90;2.37;;;19.90;89.10;;;;;;7287064;19;20189;-79
2023/04/11 12:25:11;;;;;;;13.40;2.70;;;20.40;89.00;;;;;;7288589;19;20195;-79
2023/04/11 12:27:38;;;;;;;13.10;2.43;;;20.30;87.90;;;;;;7285286;19;20202;-79
2023/04/11 12:30:04;;;;;;;17.40;2.83;;;20.00;90.30;;;;;;7289210;19;20197;-79
2023/04/11 12:32:34;;;;;;;11.17;2.07;;;20.40;90.70;;;;;;7286627;19;20218;-79
2023/04/11 12:35:01;;;;;;;10.40;2.13;;;20.30;90.20;;;;;;7287502;19;20695;-79
2023/04/11 12:37:26;;;;;;;8.17;1.83;;;21.00;91.00;;;;;;7297956;19;20563;-79
2023/04/11 12:39:52;;;;;;;16.27;2.43;;;21.20;88.80;;;;;;7308339;19;20185;-79
2023/04/11 12:42:18;;;;;;;12.90;1.67;;;20.50;88.30;;;;;;7287846;19;20193;-79
2023/04/11 12:44:45;;;;;;;9.80;1.70;;;20.20;87.10;;;;;;7286972;19;20200;-79